sensor_id;sensor_type;location;lat;lon;timestamp;temperature;humidity
74540;SHT31;66042;51.090;-115.340;2023-04-03T00:01:14;2.44;59.21
74540;SHT31;66042;51.090;-115.340;2023-04-03T00:03:42;2.43;58.92
74540;SHT31;66042;51.090;-115.340;2023-04-03T00:06:09;2.44;58.57
74540;SHT31;66042;51.090;-115.340;2023-04-03T00:08:38;2.43;58.17
74540;SHT31;66042;51.090;-115.340;2023-04-03T00:11:06;2.37;58.09
74540;SHT31;66042;51.090;-115.340;2023-04-03T00:13:34;2.36;58.34
74540;SHT31;66042;51.090;-115.340;2023-04-03T00:16:02;2.36;58.78
74540;SHT31;66042;51.090;-115.340;2023-04-03T00:18:30;2.36;59.29
74540;SHT31;66042;51.090;-115.340;2023-04-03T00:20:57;2.35;59.08
74540;SHT31;66042;51.090;-115.340;2023-04-03T00:23:25;2.35;59.32
74540;SHT31;66042;51.090;-115.340;2023-04-03T00:25:52;2.31;59.55
74540;SHT31;66042;51.090;-115.340;2023-04-03T00:28:19;2.30;59.69
74540;SHT31;66042;51.090;-115.340;2023-04-03T00:30:48;2.25;60.12
74540;SHT31;66042;51.090;-115.340;2023-04-03T00:33:16;2.24;59.95
74540;SHT31;66042;51.090;-115.340;2023-04-03T00:35:47;2.26;59.76
74540;SHT31;66042;51.090;-115.340;2023-04-03T00:38:14;2.26;59.85
74540;SHT31;66042;51.090;-115.340;2023-04-03T00:40:43;2.25;60.05
74540;SHT31;66042;51.090;-115.340;2023-04-03T00:43:14;2.19;60.37
74540;SHT31;66042;51.090;-115.340;2023-04-03T00:45:49;2.11;60.61
74540;SHT31;66042;51.090;-115.340;2023-04-03T00:48:20;2.06;60.56
74540;SHT31;66042;51.090;-115.340;2023-04-03T00:51:14;2.03;60.80
74540;SHT31;66042;51.090;-115.340;2023-04-03T00:53:50;2.02;60.70
74540;SHT31;66042;51.090;-115.340;2023-04-03T00:56:26;1.96;60.77
74540;SHT31;66042;51.090;-115.340;2023-04-03T00:59:14;1.94;60.76
74540;SHT31;66042;51.090;-115.340;2023-04-03T01:01:52;1.91;60.95
74540;SHT31;66042;51.090;-115.340;2023-04-03T01:04:35;1.87;60.71
74540;SHT31;66042;51.090;-115.340;2023-04-03T01:09:40;1.81;60.65
74540;SHT31;66042;51.090;-115.340;2023-04-03T01:14:56;1.76;60.64
74540;SHT31;66042;51.090;-115.340;2023-04-03T01:23:08;1.67;60.50
74540;SHT31;66042;51.090;-115.340;2023-04-03T01:26:11;1.61;60.65
74540;SHT31;66042;51.090;-115.340;2023-04-03T01:28:38;1.54;60.76
74540;SHT31;66042;51.090;-115.340;2023-04-03T01:33:48;1.46;61.24
74540;SHT31;66042;51.090;-115.340;2023-04-03T01:36:17;1.45;61.23
74540;SHT31;66042;51.090;-115.340;2023-04-03T01:38:49;1.43;61.21
74540;SHT31;66042;51.090;-115.340;2023-04-03T01:41:18;1.44;61.26
74540;SHT31;66042;51.090;-115.340;2023-04-03T01:43:49;1.41;61.48
74540;SHT31;66042;51.090;-115.340;2023-04-03T01:46:17;1.38;61.54
74540;SHT31;66042;51.090;-115.340;2023-04-03T01:48:45;1.33;61.85
74540;SHT31;66042;51.090;-115.340;2023-04-03T01:51:12;1.34;62.17
74540;SHT31;66042;51.090;-115.340;2023-04-03T01:53:39;1.36;62.55
74540;SHT31;66042;51.090;-115.340;2023-04-03T01:56:07;1.33;62.64
74540;SHT31;66042;51.090;-115.340;2023-04-03T01:58:35;1.34;62.82
74540;SHT31;66042;51.090;-115.340;2023-04-03T02:01:02;1.38;62.86
74540;SHT31;66042;51.090;-115.340;2023-04-03T02:03:29;1.40;63.20
74540;SHT31;66042;51.090;-115.340;2023-04-03T02:05:56;1.40;63.53
74540;SHT31;66042;51.090;-115.340;2023-04-03T02:08:24;1.39;63.73
74540;SHT31;66042;51.090;-115.340;2023-04-03T02:10:50;1.43;63.76
74540;SHT31;66042;51.090;-115.340;2023-04-03T02:13:18;1.42;64.05
74540;SHT31;66042;51.090;-115.340;2023-04-03T02:15:45;1.39;64.12
74540;SHT31;66042;51.090;-115.340;2023-04-03T02:18:13;1.35;64.23
74540;SHT31;66042;51.090;-115.340;2023-04-03T02:20:40;1.32;64.54
74540;SHT31;66042;51.090;-115.340;2023-04-03T02:23:07;1.31;64.50
74540;SHT31;66042;51.090;-115.340;2023-04-03T02:25:34;1.29;64.70
74540;SHT31;66042;51.090;-115.340;2023-04-03T02:28:01;1.24;64.79
74540;SHT31;66042;51.090;-115.340;2023-04-03T02:30:29;1.18;64.73
74540;SHT31;66042;51.090;-115.340;2023-04-03T02:32:55;1.14;64.84
74540;SHT31;66042;51.090;-115.340;2023-04-03T02:35:23;1.05;64.91
74540;SHT31;66042;51.090;-115.340;2023-04-03T02:37:49;0.97;65.22
74540;SHT31;66042;51.090;-115.340;2023-04-03T02:40:17;0.89;65.44
74540;SHT31;66042;51.090;-115.340;2023-04-03T02:42:44;0.86;65.66
74540;SHT31;66042;51.090;-115.340;2023-04-03T02:45:11;0.79;65.80
74540;SHT31;66042;51.090;-115.340;2023-04-03T02:47:38;0.74;65.89
74540;SHT31;66042;51.090;-115.340;2023-04-03T02:50:05;0.67;66.80
74540;SHT31;66042;51.090;-115.340;2023-04-03T02:52:32;0.65;66.70
74540;SHT31;66042;51.090;-115.340;2023-04-03T02:54:59;0.63;66.39
74540;SHT31;66042;51.090;-115.340;2023-04-03T02:57:27;0.62;66.40
74540;SHT31;66042;51.090;-115.340;2023-04-03T02:59:54;0.62;66.45
74540;SHT31;66042;51.090;-115.340;2023-04-03T03:02:21;0.59;66.41
74540;SHT31;66042;51.090;-115.340;2023-04-03T03:04:48;0.54;66.65
74540;SHT31;66042;51.090;-115.340;2023-04-03T03:07:15;0.56;66.52
74540;SHT31;66042;51.090;-115.340;2023-04-03T03:09:43;0.59;66.66
74540;SHT31;66042;51.090;-115.340;2023-04-03T03:12:10;0.62;66.66
74540;SHT31;66042;51.090;-115.340;2023-04-03T03:14:37;0.65;66.71
74540;SHT31;66042;51.090;-115.340;2023-04-03T03:17:04;0.65;66.66
74540;SHT31;66042;51.090;-115.340;2023-04-03T03:19:31;0.67;66.61
74540;SHT31;66042;51.090;-115.340;2023-04-03T03:21:59;0.72;66.52
74540;SHT31;66042;51.090;-115.340;2023-04-03T03:24:26;0.76;66.33
74540;SHT31;66042;51.090;-115.340;2023-04-03T03:26:53;0.78;66.25
74540;SHT31;66042;51.090;-115.340;2023-04-03T03:29:20;0.81;66.08
74540;SHT31;66042;51.090;-115.340;2023-04-03T03:31:47;0.82;66.05
74540;SHT31;66042;51.090;-115.340;2023-04-03T03:34:14;0.79;66.12
74540;SHT31;66042;51.090;-115.340;2023-04-03T03:36:42;0.79;66.10
74540;SHT31;66042;51.090;-115.340;2023-04-03T03:39:09;0.79;66.02
74540;SHT31;66042;51.090;-115.340;2023-04-03T03:41:36;0.78;66.09
74540;SHT31;66042;51.090;-115.340;2023-04-03T03:44:03;0.76;66.22
74540;SHT31;66042;51.090;-115.340;2023-04-03T03:46:30;0.75;66.14
74540;SHT31;66042;51.090;-115.340;2023-04-03T03:48:57;0.74;66.09
74540;SHT31;66042;51.090;-115.340;2023-04-03T03:51:25;0.72;65.98
74540;SHT31;66042;51.090;-115.340;2023-04-03T03:53:52;0.71;66.03
74540;SHT31;66042;51.090;-115.340;2023-04-03T03:56:19;0.69;66.09
74540;SHT31;66042;51.090;-115.340;2023-04-03T03:58:47;0.66;66.10
74540;SHT31;66042;51.090;-115.340;2023-04-03T04:01:15;0.59;66.25
74540;SHT31;66042;51.090;-115.340;2023-04-03T04:03:42;0.57;66.17
74540;SHT31;66042;51.090;-115.340;2023-04-03T04:06:09;0.57;66.19
74540;SHT31;66042;51.090;-115.340;2023-04-03T04:08:36;0.54;66.32
74540;SHT31;66042;51.090;-115.340;2023-04-03T04:11:03;0.56;66.17
74540;SHT31;66042;51.090;-115.340;2023-04-03T04:13:30;0.58;66.14
74540;SHT31;66042;51.090;-115.340;2023-04-03T04:15:58;0.61;66.10
74540;SHT31;66042;51.090;-115.340;2023-04-03T04:18:25;0.62;66.04
74540;SHT31;66042;51.090;-115.340;2023-04-03T04:20:52;0.62;65.91
74540;SHT31;66042;51.090;-115.340;2023-04-03T04:23:19;0.66;65.79
74540;SHT31;66042;51.090;-115.340;2023-04-03T04:25:47;0.67;65.79
74540;SHT31;66042;51.090;-115.340;2023-04-03T04:28:15;0.64;65.77
74540;SHT31;66042;51.090;-115.340;2023-04-03T04:30:42;0.59;65.81
74540;SHT31;66042;51.090;-115.340;2023-04-03T04:33:10;0.63;65.89
74540;SHT31;66042;51.090;-115.340;2023-04-03T04:35:40;0.63;65.87
74540;SHT31;66042;51.090;-115.340;2023-04-03T04:38:09;0.63;65.86
74540;SHT31;66042;51.090;-115.340;2023-04-03T04:40:36;0.60;65.90
74540;SHT31;66042;51.090;-115.340;2023-04-03T04:43:03;0.59;65.95
74540;SHT31;66042;51.090;-115.340;2023-04-03T04:45:30;0.54;66.21
74540;SHT31;66042;51.090;-115.340;2023-04-03T04:47:57;0.46;66.21
74540;SHT31;66042;51.090;-115.340;2023-04-03T04:50:24;0.44;66.14
74540;SHT31;66042;51.090;-115.340;2023-04-03T04:52:51;0.42;66.09
74540;SHT31;66042;51.090;-115.340;2023-04-03T04:55:18;0.40;66.11
74540;SHT31;66042;51.090;-115.340;2023-04-03T04:57:46;0.37;66.22
74540;SHT31;66042;51.090;-115.340;2023-04-03T05:00:13;0.34;66.18
74540;SHT31;66042;51.090;-115.340;2023-04-03T05:02:41;0.26;66.55
74540;SHT31;66042;51.090;-115.340;2023-04-03T05:05:08;0.20;66.62
74540;SHT31;66042;51.090;-115.340;2023-04-03T05:07:35;0.21;66.47
74540;SHT31;66042;51.090;-115.340;2023-04-03T05:10:02;0.20;66.42
74540;SHT31;66042;51.090;-115.340;2023-04-03T05:12:30;0.17;66.31
74540;SHT31;66042;51.090;-115.340;2023-04-03T05:14:57;0.16;66.22
74540;SHT31;66042;51.090;-115.340;2023-04-03T05:17:25;0.14;66.24
74540;SHT31;66042;51.090;-115.340;2023-04-03T05:19:52;0.12;66.29
74540;SHT31;66042;51.090;-115.340;2023-04-03T05:22:19;0.14;66.20
74540;SHT31;66042;51.090;-115.340;2023-04-03T05:24:46;0.14;66.25
74540;SHT31;66042;51.090;-115.340;2023-04-03T05:27:14;0.16;66.30
74540;SHT31;66042;51.090;-115.340;2023-04-03T05:29:42;0.19;66.30
74540;SHT31;66042;51.090;-115.340;2023-04-03T05:32:10;0.22;66.31
74540;SHT31;66042;51.090;-115.340;2023-04-03T05:34:37;0.23;66.39
74540;SHT31;66042;51.090;-115.340;2023-04-03T05:37:04;0.24;66.31
74540;SHT31;66042;51.090;-115.340;2023-04-03T05:39:31;0.25;66.36
74540;SHT31;66042;51.090;-115.340;2023-04-03T05:41:59;0.26;66.30
74540;SHT31;66042;51.090;-115.340;2023-04-03T05:44:26;0.28;66.32
74540;SHT31;66042;51.090;-115.340;2023-04-03T05:46:53;0.24;66.52
74540;SHT31;66042;51.090;-115.340;2023-04-03T05:49:20;0.18;66.82
74540;SHT31;66042;51.090;-115.340;2023-04-03T05:51:47;0.12;67.02
74540;SHT31;66042;51.090;-115.340;2023-04-03T05:54:18;0.08;67.24
74540;SHT31;66042;51.090;-115.340;2023-04-03T05:56:51;0.08;67.31
74540;SHT31;66042;51.090;-115.340;2023-04-03T05:59:18;0.07;67.34
74540;SHT31;66042;51.090;-115.340;2023-04-03T06:01:46;0.11;67.16
74540;SHT31;66042;51.090;-115.340;2023-04-03T06:04:14;0.13;67.04
74540;SHT31;66042;51.090;-115.340;2023-04-03T06:09:24;0.15;67.06
74540;SHT31;66042;51.090;-115.340;2023-04-03T06:11:57;0.13;67.22
74540;SHT31;66042;51.090;-115.340;2023-04-03T06:14:24;0.13;67.17
74540;SHT31;66042;51.090;-115.340;2023-04-03T06:16:52;0.13;67.10
74540;SHT31;66042;51.090;-115.340;2023-04-03T06:19:20;0.12;67.09
74540;SHT31;66042;51.090;-115.340;2023-04-03T06:21:47;0.12;67.21
74540;SHT31;66042;51.090;-115.340;2023-04-03T06:24:15;0.13;67.34
74540;SHT31;66042;51.090;-115.340;2023-04-03T06:26:44;0.13;67.21
74540;SHT31;66042;51.090;-115.340;2023-04-03T06:29:11;0.15;67.25
74540;SHT31;66042;51.090;-115.340;2023-04-03T06:31:38;0.19;67.26
74540;SHT31;66042;51.090;-115.340;2023-04-03T06:34:06;0.22;67.17
74540;SHT31;66042;51.090;-115.340;2023-04-03T06:36:33;0.24;67.19
74540;SHT31;66042;51.090;-115.340;2023-04-03T06:39:01;0.25;67.20
74540;SHT31;66042;51.090;-115.340;2023-04-03T06:41:28;0.27;67.13
74540;SHT31;66042;51.090;-115.340;2023-04-03T06:43:56;0.26;67.19
74540;SHT31;66042;51.090;-115.340;2023-04-03T06:46:24;0.25;67.25
74540;SHT31;66042;51.090;-115.340;2023-04-03T06:48:52;0.22;67.17
74540;SHT31;66042;51.090;-115.340;2023-04-03T06:51:21;0.24;67.10
74540;SHT31;66042;51.090;-115.340;2023-04-03T06:53:51;0.25;67.03
74540;SHT31;66042;51.090;-115.340;2023-04-03T06:56:22;0.23;66.97
74540;SHT31;66042;51.090;-115.340;2023-04-03T06:58:49;0.22;67.04
74540;SHT31;66042;51.090;-115.340;2023-04-03T07:01:17;0.20;67.08
74540;SHT31;66042;51.090;-115.340;2023-04-03T07:03:44;0.19;67.12
74540;SHT31;66042;51.090;-115.340;2023-04-03T07:06:14;0.16;67.21
74540;SHT31;66042;51.090;-115.340;2023-04-03T07:08:43;0.14;67.20
74540;SHT31;66042;51.090;-115.340;2023-04-03T07:11:11;0.13;67.11
74540;SHT31;66042;51.090;-115.340;2023-04-03T07:13:39;0.11;67.03
74540;SHT31;66042;51.090;-115.340;2023-04-03T07:16:07;0.09;67.01
74540;SHT31;66042;51.090;-115.340;2023-04-03T07:18:35;0.08;67.13
74540;SHT31;66042;51.090;-115.340;2023-04-03T07:21:02;0.04;67.19
74540;SHT31;66042;51.090;-115.340;2023-04-03T07:23:30;0.06;67.13
74540;SHT31;66042;51.090;-115.340;2023-04-03T07:25:58;0.08;67.19
74540;SHT31;66042;51.090;-115.340;2023-04-03T07:28:25;0.10;67.23
74540;SHT31;66042;51.090;-115.340;2023-04-03T07:31:02;0.13;67.24
74540;SHT31;66042;51.090;-115.340;2023-04-03T07:33:33;0.17;67.16
74540;SHT31;66042;51.090;-115.340;2023-04-03T07:36:01;0.22;67.06
74540;SHT31;66042;51.090;-115.340;2023-04-03T07:38:29;0.25;66.97
74540;SHT31;66042;51.090;-115.340;2023-04-03T07:40:56;0.27;66.98
74540;SHT31;66042;51.090;-115.340;2023-04-03T07:43:24;0.28;66.98
74540;SHT31;66042;51.090;-115.340;2023-04-03T07:45:52;0.27;66.90
74540;SHT31;66042;51.090;-115.340;2023-04-03T07:48:24;0.27;66.87
74540;SHT31;66042;51.090;-115.340;2023-04-03T07:50:52;0.24;67.12
74540;SHT31;66042;51.090;-115.340;2023-04-03T07:53:19;0.22;67.16
74540;SHT31;66042;51.090;-115.340;2023-04-03T07:55:47;0.22;67.13
74540;SHT31;66042;51.090;-115.340;2023-04-03T07:58:17;0.22;67.07
74540;SHT31;66042;51.090;-115.340;2023-04-03T08:00:45;0.20;67.02
74540;SHT31;66042;51.090;-115.340;2023-04-03T08:03:13;0.18;66.92
74540;SHT31;66042;51.090;-115.340;2023-04-03T08:05:45;0.16;66.93
74540;SHT31;66042;51.090;-115.340;2023-04-03T08:08:19;0.11;67.05
74540;SHT31;66042;51.090;-115.340;2023-04-03T08:10:52;0.03;67.20
74540;SHT31;66042;51.090;-115.340;2023-04-03T08:13:20;0.01;67.10
74540;SHT31;66042;51.090;-115.340;2023-04-03T08:15:48;-0.01;67.06
74540;SHT31;66042;51.090;-115.340;2023-04-03T08:18:18;-0.02;66.98
74540;SHT31;66042;51.090;-115.340;2023-04-03T08:20:47;-0.05;66.83
74540;SHT31;66042;51.090;-115.340;2023-04-03T08:23:13;-0.09;66.88
74540;SHT31;66042;51.090;-115.340;2023-04-03T08:25:42;-0.14;66.94
74540;SHT31;66042;51.090;-115.340;2023-04-03T08:28:10;-0.17;67.00
74540;SHT31;66042;51.090;-115.340;2023-04-03T08:30:41;-0.20;67.00
74540;SHT31;66042;51.090;-115.340;2023-04-03T08:33:09;-0.24;67.07
74540;SHT31;66042;51.090;-115.340;2023-04-03T08:35:39;-0.25;67.07
74540;SHT31;66042;51.090;-115.340;2023-04-03T08:38:08;-0.27;67.01
74540;SHT31;66042;51.090;-115.340;2023-04-03T08:40:36;-0.28;67.02
74540;SHT31;66042;51.090;-115.340;2023-04-03T08:43:11;-0.26;66.98
74540;SHT31;66042;51.090;-115.340;2023-04-03T08:46:22;-0.25;66.97
74540;SHT31;66042;51.090;-115.340;2023-04-03T08:49:06;-0.22;66.84
74540;SHT31;66042;51.090;-115.340;2023-04-03T08:51:55;-0.22;66.63
74540;SHT31;66042;51.090;-115.340;2023-04-03T08:55:12;-0.25;66.63
74540;SHT31;66042;51.090;-115.340;2023-04-03T09:00:34;-0.31;66.81
74540;SHT31;66042;51.090;-115.340;2023-04-03T09:02:57;-0.34;66.97
74540;SHT31;66042;51.090;-115.340;2023-04-03T09:05:33;-0.31;66.80
74540;SHT31;66042;51.090;-115.340;2023-04-03T09:08:18;-0.30;66.70
74540;SHT31;66042;51.090;-115.340;2023-04-03T09:17:03;-0.34;66.72
74540;SHT31;66042;51.090;-115.340;2023-04-03T09:23:11;-0.41;66.88
74540;SHT31;66042;51.090;-115.340;2023-04-03T09:26:03;-0.44;66.99
74540;SHT31;66042;51.090;-115.340;2023-04-03T09:28:59;-0.48;67.03
74540;SHT31;66042;51.090;-115.340;2023-04-03T09:31:38;-0.51;67.09
74540;SHT31;66042;51.090;-115.340;2023-04-03T09:34:20;-0.53;67.10
74540;SHT31;66042;51.090;-115.340;2023-04-03T09:36:59;-0.55;67.13
74540;SHT31;66042;51.090;-115.340;2023-04-03T09:39:32;-0.59;67.37
74540;SHT31;66042;51.090;-115.340;2023-04-03T09:42:20;-0.62;67.62
74540;SHT31;66042;51.090;-115.340;2023-04-03T09:45:00;-0.63;67.74
74540;SHT31;66042;51.090;-115.340;2023-04-03T09:47:31;-0.60;67.71
74540;SHT31;66042;51.090;-115.340;2023-04-03T09:52:41;-0.60;68.14
74540;SHT31;66042;51.090;-115.340;2023-04-03T09:55:19;-0.61;68.26
74540;SHT31;66042;51.090;-115.340;2023-04-03T09:57:54;-0.58;68.31
74540;SHT31;66042;51.090;-115.340;2023-04-03T10:03:04;-0.46;68.08
74540;SHT31;66042;51.090;-115.340;2023-04-03T10:05:54;-0.41;67.91
74540;SHT31;66042;51.090;-115.340;2023-04-03T10:08:25;-0.41;68.06
74540;SHT31;66042;51.090;-115.340;2023-04-03T10:11:10;-0.41;68.09
74540;SHT31;66042;51.090;-115.340;2023-04-03T10:13:52;-0.39;68.02
74540;SHT31;66042;51.090;-115.340;2023-04-03T10:16:44;-0.41;68.14
74540;SHT31;66042;51.090;-115.340;2023-04-03T10:28:05;-0.57;68.50
74540;SHT31;66042;51.090;-115.340;2023-04-03T10:33:27;-0.55;68.44
74540;SHT31;66042;51.090;-115.340;2023-04-03T10:39:22;-0.55;68.05
74540;SHT31;66042;51.090;-115.340;2023-04-03T10:45:21;-0.60;67.69
74540;SHT31;66042;51.090;-115.340;2023-04-03T10:55:06;-0.78;67.60
74540;SHT31;66042;51.090;-115.340;2023-04-03T10:58:03;-0.87;67.78
74540;SHT31;66042;51.090;-115.340;2023-04-03T11:00:37;-0.90;67.80
74540;SHT31;66042;51.090;-115.340;2023-04-03T11:03:24;-0.92;67.75
74540;SHT31;66042;51.090;-115.340;2023-04-03T11:06:02;-0.92;67.76
74540;SHT31;66042;51.090;-115.340;2023-04-03T11:08:54;-0.94;67.76
74540;SHT31;66042;51.090;-115.340;2023-04-03T11:11:33;-0.90;67.65
74540;SHT31;66042;51.090;-115.340;2023-04-03T11:17:09;-0.89;67.61
74540;SHT31;66042;51.090;-115.340;2023-04-03T11:22:48;-0.82;67.40
74540;SHT31;66042;51.090;-115.340;2023-04-03T11:25:25;-0.77;67.30
74540;SHT31;66042;51.090;-115.340;2023-04-03T11:28:11;-0.77;67.20
74540;SHT31;66042;51.090;-115.340;2023-04-03T11:36:59;-0.78;67.03
74540;SHT31;66042;51.090;-115.340;2023-04-03T11:39:34;-0.81;67.07
74540;SHT31;66042;51.090;-115.340;2023-04-03T11:53:35;-0.91;67.43
74540;SHT31;66042;51.090;-115.340;2023-04-03T12:01:45;-0.98;67.79
74540;SHT31;66042;51.090;-115.340;2023-04-03T12:04:26;-0.97;67.80
74540;SHT31;66042;51.090;-115.340;2023-04-03T12:06:59;-0.99;67.93
74540;SHT31;66042;51.090;-115.340;2023-04-03T12:12:32;-1.00;68.24
74540;SHT31;66042;51.090;-115.340;2023-04-03T12:16:04;-0.99;68.41
74540;SHT31;66042;51.090;-115.340;2023-04-03T12:21:09;-0.93;68.32
74540;SHT31;66042;51.090;-115.340;2023-04-03T12:23:59;-0.90;68.33
74540;SHT31;66042;51.090;-115.340;2023-04-03T12:40:53;-0.71;67.80
74540;SHT31;66042;51.090;-115.340;2023-04-03T12:46:03;-0.70;67.60
74540;SHT31;66042;51.090;-115.340;2023-04-03T12:48:37;-0.71;67.50
74540;SHT31;66042;51.090;-115.340;2023-04-03T12:51:32;-0.74;67.44
74540;SHT31;66042;51.090;-115.340;2023-04-03T12:54:49;-0.79;67.52
74540;SHT31;66042;51.090;-115.340;2023-04-03T12:59:59;-0.88;67.40
74540;SHT31;66042;51.090;-115.340;2023-04-03T13:02:44;-0.92;67.38
74540;SHT31;66042;51.090;-115.340;2023-04-03T13:05:16;-0.96;67.30
74540;SHT31;66042;51.090;-115.340;2023-04-03T13:07:52;-1.00;67.22
74540;SHT31;66042;51.090;-115.340;2023-04-03T13:10:38;-1.04;67.11
74540;SHT31;66042;51.090;-115.340;2023-04-03T13:13:37;-1.11;67.03
74540;SHT31;66042;51.090;-115.340;2023-04-03T13:16:08;-1.14;66.99
74540;SHT31;66042;51.090;-115.340;2023-04-03T13:18:39;-1.21;66.90
74540;SHT31;66042;51.090;-115.340;2023-04-03T13:21:13;-1.27;66.92
74540;SHT31;66042;51.090;-115.340;2023-04-03T13:23:57;-1.33;66.80
74540;SHT31;66042;51.090;-115.340;2023-04-03T13:26:28;-1.38;66.79
74540;SHT31;66042;51.090;-115.340;2023-04-03T13:29:03;-1.42;66.78
74540;SHT31;66042;51.090;-115.340;2023-04-03T13:31:43;-1.47;66.79
74540;SHT31;66042;51.090;-115.340;2023-04-03T13:34:12;-1.52;66.80
74540;SHT31;66042;51.090;-115.340;2023-04-03T13:37:04;-1.56;66.75
74540;SHT31;66042;51.090;-115.340;2023-04-03T13:39:33;-1.57;66.74
74540;SHT31;66042;51.090;-115.340;2023-04-03T13:42:25;-1.57;66.70
74540;SHT31;66042;51.090;-115.340;2023-04-03T13:48:06;-1.56;66.74
74540;SHT31;66042;51.090;-115.340;2023-04-03T13:50:55;-1.49;66.61
74540;SHT31;66042;51.090;-115.340;2023-04-03T13:53:56;-1.44;66.49
74540;SHT31;66042;51.090;-115.340;2023-04-03T14:01:48;-1.29;66.20
74540;SHT31;66042;51.090;-115.340;2023-04-03T14:04:47;-1.27;66.02
74540;SHT31;66042;51.090;-115.340;2023-04-03T14:07:24;-1.27;65.97
74540;SHT31;66042;51.090;-115.340;2023-04-03T14:09:53;-1.25;66.00
74540;SHT31;66042;51.090;-115.340;2023-04-03T14:15:06;-1.27;66.03
74540;SHT31;66042;51.090;-115.340;2023-04-03T14:17:58;-1.27;66.15
74540;SHT31;66042;51.090;-115.340;2023-04-03T14:20:26;-1.30;66.28
74540;SHT31;66042;51.090;-115.340;2023-04-03T14:22:53;-1.27;66.28
74540;SHT31;66042;51.090;-115.340;2023-04-03T14:25:21;-1.23;66.16
74540;SHT31;66042;51.090;-115.340;2023-04-03T14:27:50;-1.22;66.12
74540;SHT31;66042;51.090;-115.340;2023-04-03T14:30:23;-1.21;66.20
74540;SHT31;66042;51.090;-115.340;2023-04-03T14:32:55;-1.19;66.15
74540;SHT31;66042;51.090;-115.340;2023-04-03T14:35:24;-1.17;66.10
74540;SHT31;66042;51.090;-115.340;2023-04-03T14:37:52;-1.15;66.11
74540;SHT31;66042;51.090;-115.340;2023-04-03T14:40:23;-1.13;66.10
74540;SHT31;66042;51.090;-115.340;2023-04-03T14:42:53;-1.13;66.11
74540;SHT31;66042;51.090;-115.340;2023-04-03T14:45:23;-1.19;66.28
74540;SHT31;66042;51.090;-115.340;2023-04-03T14:47:52;-1.16;66.40
74540;SHT31;66042;51.090;-115.340;2023-04-03T14:50:23;-1.12;66.31
74540;SHT31;66042;51.090;-115.340;2023-04-03T14:52:53;-1.06;66.17
74540;SHT31;66042;51.090;-115.340;2023-04-03T14:55:24;-1.01;66.04
74540;SHT31;66042;51.090;-115.340;2023-04-03T14:57:52;-1.04;66.16
74540;SHT31;66042;51.090;-115.340;2023-04-03T15:00:20;-1.04;66.14
74540;SHT31;66042;51.090;-115.340;2023-04-03T15:02:48;-1.04;66.20
74540;SHT31;66042;51.090;-115.340;2023-04-03T15:05:15;-0.99;66.10
74540;SHT31;66042;51.090;-115.340;2023-04-03T15:07:51;-1.03;66.21
74540;SHT31;66042;51.090;-115.340;2023-04-03T15:10:25;-1.06;66.33
74540;SHT31;66042;51.090;-115.340;2023-04-03T15:12:56;-1.04;66.26
74540;SHT31;66042;51.090;-115.340;2023-04-03T15:15:23;-1.03;66.25
74540;SHT31;66042;51.090;-115.340;2023-04-03T15:17:55;-1.00;66.29
74540;SHT31;66042;51.090;-115.340;2023-04-03T15:20:24;-0.92;66.11
74540;SHT31;66042;51.090;-115.340;2023-04-03T15:22:55;-0.85;65.92
74540;SHT31;66042;51.090;-115.340;2023-04-03T15:25:25;-0.78;65.69
74540;SHT31;66042;51.090;-115.340;2023-04-03T15:27:54;-0.71;65.64
74540;SHT31;66042;51.090;-115.340;2023-04-03T15:30:21;-0.64;65.72
74540;SHT31;66042;51.090;-115.340;2023-04-03T15:32:49;-0.54;65.70
74540;SHT31;66042;51.090;-115.340;2023-04-03T15:35:16;-0.42;65.43
74540;SHT31;66042;51.090;-115.340;2023-04-03T15:37:43;-0.28;65.19
74540;SHT31;66042;51.090;-115.340;2023-04-03T15:40:11;-0.18;64.84
74540;SHT31;66042;51.090;-115.340;2023-04-03T15:42:38;-0.14;64.72
74540;SHT31;66042;51.090;-115.340;2023-04-03T15:45:07;-0.06;64.58
74540;SHT31;66042;51.090;-115.340;2023-04-03T15:47:34;0.03;64.40
74540;SHT31;66042;51.090;-115.340;2023-04-03T15:50:02;0.09;64.45
74540;SHT31;66042;51.090;-115.340;2023-04-03T15:52:32;0.13;64.31
74540;SHT31;66042;51.090;-115.340;2023-04-03T15:55:01;0.14;64.17
74540;SHT31;66042;51.090;-115.340;2023-04-03T15:57:28;0.17;64.12
74540;SHT31;66042;51.090;-115.340;2023-04-03T15:59:55;0.19;63.91
74540;SHT31;66042;51.090;-115.340;2023-04-03T16:02:22;0.25;63.84
74540;SHT31;66042;51.090;-115.340;2023-04-03T16:04:53;0.24;63.89
74540;SHT31;66042;51.090;-115.340;2023-04-03T16:07:21;0.20;63.87
74540;SHT31;66042;51.090;-115.340;2023-04-03T16:09:48;0.25;63.73
74540;SHT31;66042;51.090;-115.340;2023-04-03T16:12:15;0.34;63.66
74540;SHT31;66042;51.090;-115.340;2023-04-03T16:14:42;0.41;63.36
74540;SHT31;66042;51.090;-115.340;2023-04-03T16:17:09;0.42;63.40
74540;SHT31;66042;51.090;-115.340;2023-04-03T16:19:37;0.46;63.34
74540;SHT31;66042;51.090;-115.340;2023-04-03T16:22:05;0.49;63.26
74540;SHT31;66042;51.090;-115.340;2023-04-03T16:24:32;0.51;63.45
74540;SHT31;66042;51.090;-115.340;2023-04-03T16:27:01;0.54;63.39
74540;SHT31;66042;51.090;-115.340;2023-04-03T16:29:27;0.56;63.35
74540;SHT31;66042;51.090;-115.340;2023-04-03T16:31:55;0.64;63.14
74540;SHT31;66042;51.090;-115.340;2023-04-03T16:34:24;0.73;63.24
74540;SHT31;66042;51.090;-115.340;2023-04-03T16:36:52;0.78;63.22
74540;SHT31;66042;51.090;-115.340;2023-04-03T16:39:19;0.84;62.87
74540;SHT31;66042;51.090;-115.340;2023-04-03T16:41:47;0.89;62.31
74540;SHT31;66042;51.090;-115.340;2023-04-03T16:44:14;0.93;61.95
74540;SHT31;66042;51.090;-115.340;2023-04-03T16:46:41;0.96;61.46
74540;SHT31;66042;51.090;-115.340;2023-04-03T16:49:08;0.99;61.52
74540;SHT31;66042;51.090;-115.340;2023-04-03T16:51:35;1.01;61.43
74540;SHT31;66042;51.090;-115.340;2023-04-03T16:54:03;1.05;61.20
74540;SHT31;66042;51.090;-115.340;2023-04-03T16:56:31;1.14;61.07
74540;SHT31;66042;51.090;-115.340;2023-04-03T16:58:58;1.15;60.83
74540;SHT31;66042;51.090;-115.340;2023-04-03T17:01:26;1.17;60.64
74540;SHT31;66042;51.090;-115.340;2023-04-03T17:03:53;1.19;60.93
74540;SHT31;66042;51.090;-115.340;2023-04-03T17:06:20;1.24;60.83
74540;SHT31;66042;51.090;-115.340;2023-04-03T17:08:49;1.29;60.80
74540;SHT31;66042;51.090;-115.340;2023-04-03T17:11:17;1.29;60.59
74540;SHT31;66042;51.090;-115.340;2023-04-03T17:13:45;1.30;60.73
74540;SHT31;66042;51.090;-115.340;2023-04-03T17:16:13;1.33;60.75
74540;SHT31;66042;51.090;-115.340;2023-04-03T17:18:41;1.36;60.65
74540;SHT31;66042;51.090;-115.340;2023-04-03T17:21:09;1.37;60.72
74540;SHT31;66042;51.090;-115.340;2023-04-03T17:23:37;1.36;61.17
74540;SHT31;66042;51.090;-115.340;2023-04-03T17:26:08;1.29;61.45
74540;SHT31;66042;51.090;-115.340;2023-04-03T17:28:35;1.29;61.48